Gainesville, Texas
Current Conditions -  °F | °C
As of 1:15 AM on Thursday 18 Dec 2014 (Local Time) from KGLE Reporting Station
Haze Haze  
Wind Chill: 35°   Ceiling: 300
Heat Index: 38°   Visibility: 5mi
Dew Point: 38°   Wind: 5mph
Humidity: 98%   Direction: 130°SE
Pressure: 30.16"   Gusts: NA
Location:  33.62°N, 97.14°W
Report Text: KGLE 180715Z AUTO 13004KT 5SM BR OVC003 04/03 A3016 RMK AO2 T00350032
Loading
Personal Weather Stations






























Interactive Weather Map New forecast layout! Learn more

10-Day Weather Forecast

Advertisements
Track Severe Weather on mobile